sensor_id;sensor_type;location;lat;lon;timestamp;P1;durP1;ratioP1;P2;durP2;ratioP2
64487;SDS011;50864;45.050;39.014;2023-04-10T00:02:17;16.42;;;10.18;;
64487;SDS011;50864;45.050;39.014;2023-04-10T00:04:44;16.40;;;10.13;;
64487;SDS011;50864;45.050;39.014;2023-04-10T00:07:10;14.18;;;8.77;;
64487;SDS011;50864;45.050;39.014;2023-04-10T00:09:36;17.42;;;10.05;;
64487;SDS011;50864;45.050;39.014;2023-04-10T00:12:02;16.40;;;9.05;;
64487;SDS011;50864;45.050;39.014;2023-04-10T00:14:27;17.00;;;10.13;;
64487;SDS011;50864;45.050;39.014;2023-04-10T00:16:53;13.88;;;8.63;;
64487;SDS011;50864;45.050;39.014;2023-04-10T00:19:19;17.10;;;9.50;;
64487;SDS011;50864;45.050;39.014;2023-04-10T00:21:45;18.70;;;10.52;;
64487;SDS011;50864;45.050;39.014;2023-04-10T00:24:11;17.45;;;11.15;;
64487;SDS011;50864;45.050;39.014;2023-04-10T00:26:37;16.02;;;9.40;;
64487;SDS011;50864;45.050;39.014;2023-04-10T00:29:02;17.30;;;9.55;;
64487;SDS011;50864;45.050;39.014;2023-04-10T00:31:28;15.02;;;8.65;;
64487;SDS011;50864;45.050;39.014;2023-04-10T00:33:54;12.63;;;7.05;;
64487;SDS011;50864;45.050;39.014;2023-04-10T00:36:20;15.50;;;9.75;;
64487;SDS011;50864;45.050;39.014;2023-04-10T00:38:46;19.60;;;9.95;;
64487;SDS011;50864;45.050;39.014;2023-04-10T00:41:12;16.37;;;9.68;;
64487;SDS011;50864;45.050;39.014;2023-04-10T00:43:38;14.48;;;8.48;;
64487;SDS011;50864;45.050;39.014;2023-04-10T00:46:03;15.57;;;8.60;;
64487;SDS011;50864;45.050;39.014;2023-04-10T00:48:32;15.35;;;9.63;;
64487;SDS011;50864;45.050;39.014;2023-04-10T00:50:58;17.60;;;9.90;;
64487;SDS011;50864;45.050;39.014;2023-04-10T00:53:24;14.23;;;8.10;;
64487;SDS011;50864;45.050;39.014;2023-04-10T00:55:50;15.60;;;9.15;;
64487;SDS011;50864;45.050;39.014;2023-04-10T00:58:16;14.90;;;8.55;;
64487;SDS011;50864;45.050;39.014;2023-04-10T01:00:42;16.65;;;11.50;;
64487;SDS011;50864;45.050;39.014;2023-04-10T01:03:08;17.35;;;10.13;;
64487;SDS011;50864;45.050;39.014;2023-04-10T01:05:38;14.90;;;8.48;;
64487;SDS011;50864;45.050;39.014;2023-04-10T01:10:50;15.05;;;9.27;;
64487;SDS011;50864;45.050;39.014;2023-04-10T01:13:22;17.67;;;8.85;;
64487;SDS011;50864;45.050;39.014;2023-04-10T01:18:23;13.23;;;8.27;;
64487;SDS011;50864;45.050;39.014;2023-04-10T01:20:50;17.30;;;10.25;;
64487;SDS011;50864;45.050;39.014;2023-04-10T01:26:05;10.98;;;6.93;;
64487;SDS011;50864;45.050;39.014;2023-04-10T01:31:03;19.70;;;9.73;;
64487;SDS011;50864;45.050;39.014;2023-04-10T01:33:34;17.00;;;10.85;;
64487;SDS011;50864;45.050;39.014;2023-04-10T01:36:04;18.93;;;9.17;;
64487;SDS011;50864;45.050;39.014;2023-04-10T01:38:34;16.65;;;9.70;;
64487;SDS011;50864;45.050;39.014;2023-04-10T01:41:00;17.77;;;10.32;;
64487;SDS011;50864;45.050;39.014;2023-04-10T01:43:27;16.00;;;9.38;;
64487;SDS011;50864;45.050;39.014;2023-04-10T01:45:54;15.95;;;9.98;;
64487;SDS011;50864;45.050;39.014;2023-04-10T01:48:20;14.25;;;8.32;;
64487;SDS011;50864;45.050;39.014;2023-04-10T01:50:46;17.73;;;9.82;;
64487;SDS011;50864;45.050;39.014;2023-04-10T01:53:12;17.20;;;10.40;;
64487;SDS011;50864;45.050;39.014;2023-04-10T01:55:38;16.08;;;8.55;;
64487;SDS011;50864;45.050;39.014;2023-04-10T01:58:04;19.50;;;10.82;;
64487;SDS011;50864;45.050;39.014;2023-04-10T02:00:36;16.02;;;9.15;;
64487;SDS011;50864;45.050;39.014;2023-04-10T02:03:02;15.95;;;8.90;;
64487;SDS011;50864;45.050;39.014;2023-04-10T02:05:28;18.52;;;10.60;;
64487;SDS011;50864;45.050;39.014;2023-04-10T02:08:04;13.73;;;7.87;;
64487;SDS011;50864;45.050;39.014;2023-04-10T02:10:40;15.85;;;8.60;;
64487;SDS011;50864;45.050;39.014;2023-04-10T02:13:08;15.32;;;10.25;;
64487;SDS011;50864;45.050;39.014;2023-04-10T02:15:36;17.33;;;9.32;;
64487;SDS011;50864;45.050;39.014;2023-04-10T02:18:06;17.80;;;8.23;;
64487;SDS011;50864;45.050;39.014;2023-04-10T02:20:34;16.90;;;9.52;;
64487;SDS011;50864;45.050;39.014;2023-04-10T02:23:00;16.50;;;8.90;;
64487;SDS011;50864;45.050;39.014;2023-04-10T02:25:31;18.70;;;10.20;;
64487;SDS011;50864;45.050;39.014;2023-04-10T02:28:02;16.35;;;8.65;;
64487;SDS011;50864;45.050;39.014;2023-04-10T02:30:29;15.88;;;9.80;;
64487;SDS011;50864;45.050;39.014;2023-04-10T02:32:55;14.95;;;8.23;;
64487;SDS011;50864;45.050;39.014;2023-04-10T02:35:21;17.48;;;9.38;;
64487;SDS011;50864;45.050;39.014;2023-04-10T02:37:47;16.20;;;9.63;;
64487;SDS011;50864;45.050;39.014;2023-04-10T02:40:15;16.48;;;9.02;;
64487;SDS011;50864;45.050;39.014;2023-04-10T02:42:43;16.62;;;8.27;;
64487;SDS011;50864;45.050;39.014;2023-04-10T02:45:09;15.65;;;8.18;;
64487;SDS011;50864;45.050;39.014;2023-04-10T02:47:35;16.58;;;8.27;;
64487;SDS011;50864;45.050;39.014;2023-04-10T02:50:01;13.48;;;7.03;;
64487;SDS011;50864;45.050;39.014;2023-04-10T02:52:29;16.05;;;7.25;;
64487;SDS011;50864;45.050;39.014;2023-04-10T02:54:54;16.70;;;8.23;;
64487;SDS011;50864;45.050;39.014;2023-04-10T02:57:21;14.50;;;7.55;;
64487;SDS011;50864;45.050;39.014;2023-04-10T02:59:50;13.95;;;8.05;;
64487;SDS011;50864;45.050;39.014;2023-04-10T03:02:16;10.98;;;6.57;;
64487;SDS011;50864;45.050;39.014;2023-04-10T03:04:43;13.77;;;7.75;;
64487;SDS011;50864;45.050;39.014;2023-04-10T03:07:08;14.02;;;8.35;;
64487;SDS011;50864;45.050;39.014;2023-04-10T03:09:37;14.95;;;8.68;;
64487;SDS011;50864;45.050;39.014;2023-04-10T03:12:03;15.02;;;8.48;;
64487;SDS011;50864;45.050;39.014;2023-04-10T03:14:29;18.90;;;9.65;;
64487;SDS011;50864;45.050;39.014;2023-04-10T03:16:55;17.12;;;9.07;;
64487;SDS011;50864;45.050;39.014;2023-04-10T03:19:21;17.42;;;10.15;;
64487;SDS011;50864;45.050;39.014;2023-04-10T03:21:47;13.88;;;8.05;;
64487;SDS011;50864;45.050;39.014;2023-04-10T03:24:12;17.55;;;10.50;;
64487;SDS011;50864;45.050;39.014;2023-04-10T03:26:38;13.50;;;8.00;;
64487;SDS011;50864;45.050;39.014;2023-04-10T03:29:04;16.25;;;9.32;;
64487;SDS011;50864;45.050;39.014;2023-04-10T03:31:30;15.18;;;9.35;;
64487;SDS011;50864;45.050;39.014;2023-04-10T03:33:57;15.38;;;8.50;;
64487;SDS011;50864;45.050;39.014;2023-04-10T03:36:23;12.90;;;7.43;;
64487;SDS011;50864;45.050;39.014;2023-04-10T03:38:48;13.90;;;8.27;;
64487;SDS011;50864;45.050;39.014;2023-04-10T03:41:15;13.20;;;7.97;;
64487;SDS011;50864;45.050;39.014;2023-04-10T03:43:40;10.88;;;6.97;;
64487;SDS011;50864;45.050;39.014;2023-04-10T03:46:06;14.27;;;9.68;;
64487;SDS011;50864;45.050;39.014;2023-04-10T03:48:34;13.38;;;9.02;;
64487;SDS011;50864;45.050;39.014;2023-04-10T03:50:59;14.30;;;8.45;;
64487;SDS011;50864;45.050;39.014;2023-04-10T03:53:26;11.95;;;7.95;;
64487;SDS011;50864;45.050;39.014;2023-04-10T03:55:52;13.15;;;7.87;;
64487;SDS011;50864;45.050;39.014;2023-04-10T03:58:19;12.25;;;7.70;;
64487;SDS011;50864;45.050;39.014;2023-04-10T04:00:45;10.32;;;7.20;;
64487;SDS011;50864;45.050;39.014;2023-04-10T04:03:12;12.85;;;7.75;;
64487;SDS011;50864;45.050;39.014;2023-04-10T04:05:41;12.95;;;7.47;;
64487;SDS011;50864;45.050;39.014;2023-04-10T04:08:13;14.55;;;9.02;;
64487;SDS011;50864;45.050;39.014;2023-04-10T04:10:41;11.95;;;7.62;;
64487;SDS011;50864;45.050;39.014;2023-04-10T04:13:08;15.68;;;8.68;;
64487;SDS011;50864;45.050;39.014;2023-04-10T04:15:35;12.37;;;7.53;;
64487;SDS011;50864;45.050;39.014;2023-04-10T04:18:01;14.30;;;9.18;;
64487;SDS011;50864;45.050;39.014;2023-04-10T04:20:29;13.50;;;8.43;;
64487;SDS011;50864;45.050;39.014;2023-04-10T04:22:57;10.75;;;6.75;;
64487;SDS011;50864;45.050;39.014;2023-04-10T04:25:28;12.40;;;7.10;;
64487;SDS011;50864;45.050;39.014;2023-04-10T04:27:57;12.00;;;7.85;;
64487;SDS011;50864;45.050;39.014;2023-04-10T04:30:23;12.93;;;7.90;;
64487;SDS011;50864;45.050;39.014;2023-04-10T04:32:50;12.85;;;7.10;;
64487;SDS011;50864;45.050;39.014;2023-04-10T04:35:16;14.70;;;8.90;;
64487;SDS011;50864;45.050;39.014;2023-04-10T04:37:44;13.23;;;7.97;;
64487;SDS011;50864;45.050;39.014;2023-04-10T04:40:23;13.35;;;8.70;;
64487;SDS011;50864;45.050;39.014;2023-04-10T04:42:51;15.35;;;8.45;;
64487;SDS011;50864;45.050;39.014;2023-04-10T04:45:18;15.05;;;7.87;;
64487;SDS011;50864;45.050;39.014;2023-04-10T04:47:47;12.65;;;7.82;;
64487;SDS011;50864;45.050;39.014;2023-04-10T04:50:13;12.20;;;7.55;;
64487;SDS011;50864;45.050;39.014;2023-04-10T04:52:39;10.80;;;6.80;;
64487;SDS011;50864;45.050;39.014;2023-04-10T04:55:06;11.88;;;7.05;;
64487;SDS011;50864;45.050;39.014;2023-04-10T04:57:33;13.35;;;7.90;;
64487;SDS011;50864;45.050;39.014;2023-04-10T05:00:01;12.90;;;7.55;;
64487;SDS011;50864;45.050;39.014;2023-04-10T05:02:32;11.48;;;7.53;;
64487;SDS011;50864;45.050;39.014;2023-04-10T05:04:58;16.10;;;8.15;;
64487;SDS011;50864;45.050;39.014;2023-04-10T05:07:25;11.23;;;7.47;;
64487;SDS011;50864;45.050;39.014;2023-04-10T05:09:51;13.38;;;8.15;;
64487;SDS011;50864;45.050;39.014;2023-04-10T05:12:17;13.40;;;7.75;;
64487;SDS011;50864;45.050;39.014;2023-04-10T05:14:43;14.40;;;7.68;;
64487;SDS011;50864;45.050;39.014;2023-04-10T05:17:10;14.70;;;9.27;;
64487;SDS011;50864;45.050;39.014;2023-04-10T05:19:36;13.62;;;7.70;;
64487;SDS011;50864;45.050;39.014;2023-04-10T05:22:07;13.18;;;7.62;;
64487;SDS011;50864;45.050;39.014;2023-04-10T05:24:34;16.00;;;7.65;;
64487;SDS011;50864;45.050;39.014;2023-04-10T05:27:00;13.62;;;8.90;;
64487;SDS011;50864;45.050;39.014;2023-04-10T05:29:27;15.15;;;9.20;;
64487;SDS011;50864;45.050;39.014;2023-04-10T05:31:53;14.00;;;8.00;;
64487;SDS011;50864;45.050;39.014;2023-04-10T05:34:19;28.33;;;9.30;;
64487;SDS011;50864;45.050;39.014;2023-04-10T05:36:46;19.75;;;8.88;;
64487;SDS011;50864;45.050;39.014;2023-04-10T05:39:14;12.43;;;7.12;;
64487;SDS011;50864;45.050;39.014;2023-04-10T05:41:42;14.32;;;7.47;;
64487;SDS011;50864;45.050;39.014;2023-04-10T05:44:12;12.75;;;7.65;;
64487;SDS011;50864;45.050;39.014;2023-04-10T05:46:41;15.00;;;8.10;;
64487;SDS011;50864;45.050;39.014;2023-04-10T05:49:07;14.02;;;7.25;;
64487;SDS011;50864;45.050;39.014;2023-04-10T05:51:33;11.77;;;6.18;;
64487;SDS011;50864;45.050;39.014;2023-04-10T05:54:03;15.38;;;6.90;;
64487;SDS011;50864;45.050;39.014;2023-04-10T05:56:29;11.70;;;6.97;;
64487;SDS011;50864;45.050;39.014;2023-04-10T05:58:55;12.93;;;7.05;;
64487;SDS011;50864;45.050;39.014;2023-04-10T06:01:21;15.65;;;7.32;;
64487;SDS011;50864;45.050;39.014;2023-04-10T06:03:47;14.95;;;6.70;;
64487;SDS011;50864;45.050;39.014;2023-04-10T06:06:13;11.57;;;6.00;;
64487;SDS011;50864;45.050;39.014;2023-04-10T06:08:39;9.68;;;4.75;;
64487;SDS011;50864;45.050;39.014;2023-04-10T06:11:05;13.40;;;6.12;;
64487;SDS011;50864;45.050;39.014;2023-04-10T06:13:31;11.77;;;7.15;;
64487;SDS011;50864;45.050;39.014;2023-04-10T06:15:57;12.10;;;7.18;;
64487;SDS011;50864;45.050;39.014;2023-04-10T06:18:24;10.98;;;6.10;;
64487;SDS011;50864;45.050;39.014;2023-04-10T06:20:50;11.98;;;6.18;;
64487;SDS011;50864;45.050;39.014;2023-04-10T06:23:16;10.98;;;6.30;;
64487;SDS011;50864;45.050;39.014;2023-04-10T06:25:42;10.88;;;7.40;;
64487;SDS011;50864;45.050;39.014;2023-04-10T06:28:07;9.10;;;4.97;;
64487;SDS011;50864;45.050;39.014;2023-04-10T06:30:34;10.80;;;6.25;;
64487;SDS011;50864;45.050;39.014;2023-04-10T06:33:02;8.02;;;4.60;;
64487;SDS011;50864;45.050;39.014;2023-04-10T06:35:29;8.95;;;4.65;;
64487;SDS011;50864;45.050;39.014;2023-04-10T06:37:55;9.73;;;4.37;;
64487;SDS011;50864;45.050;39.014;2023-04-10T06:40:21;12.93;;;5.65;;
64487;SDS011;50864;45.050;39.014;2023-04-10T06:42:47;11.57;;;5.47;;
64487;SDS011;50864;45.050;39.014;2023-04-10T06:45:13;7.95;;;4.28;;
64487;SDS011;50864;45.050;39.014;2023-04-10T06:47:39;11.40;;;5.53;;
64487;SDS011;50864;45.050;39.014;2023-04-10T06:50:05;9.23;;;5.60;;
64487;SDS011;50864;45.050;39.014;2023-04-10T06:52:31;9.55;;;5.20;;
64487;SDS011;50864;45.050;39.014;2023-04-10T06:54:57;10.35;;;5.85;;
64487;SDS011;50864;45.050;39.014;2023-04-10T06:57:23;9.35;;;5.28;;
64487;SDS011;50864;45.050;39.014;2023-04-10T06:59:49;10.25;;;6.65;;
64487;SDS011;50864;45.050;39.014;2023-04-10T07:02:15;10.43;;;5.40;;
64487;SDS011;50864;45.050;39.014;2023-04-10T07:04:41;10.57;;;6.00;;
64487;SDS011;50864;45.050;39.014;2023-04-10T07:07:06;9.48;;;6.70;;
64487;SDS011;50864;45.050;39.014;2023-04-10T07:09:34;11.52;;;6.20;;
64487;SDS011;50864;45.050;39.014;2023-04-10T07:12:00;10.65;;;6.05;;
64487;SDS011;50864;45.050;39.014;2023-04-10T07:14:26;8.98;;;4.87;;
64487;SDS011;50864;45.050;39.014;2023-04-10T07:16:52;9.77;;;5.87;;
64487;SDS011;50864;45.050;39.014;2023-04-10T07:19:19;10.95;;;5.78;;
64487;SDS011;50864;45.050;39.014;2023-04-10T07:21:45;9.60;;;6.78;;
64487;SDS011;50864;45.050;39.014;2023-04-10T07:24:15;15.85;;;5.80;;
64487;SDS011;50864;45.050;39.014;2023-04-10T07:26:41;14.85;;;6.70;;
64487;SDS011;50864;45.050;39.014;2023-04-10T07:29:07;17.55;;;7.55;;
64487;SDS011;50864;45.050;39.014;2023-04-10T07:31:34;12.48;;;6.72;;
64487;SDS011;50864;45.050;39.014;2023-04-10T07:34:00;16.52;;;6.85;;
64487;SDS011;50864;45.050;39.014;2023-04-10T07:36:26;11.18;;;6.70;;
64487;SDS011;50864;45.050;39.014;2023-04-10T07:38:52;9.75;;;5.82;;
64487;SDS011;50864;45.050;39.014;2023-04-10T07:41:18;10.35;;;7.22;;
64487;SDS011;50864;45.050;39.014;2023-04-10T07:43:43;12.20;;;5.40;;
64487;SDS011;50864;45.050;39.014;2023-04-10T07:46:09;10.65;;;5.53;;
64487;SDS011;50864;45.050;39.014;2023-04-10T07:48:35;10.25;;;5.28;;
64487;SDS011;50864;45.050;39.014;2023-04-10T07:51:01;9.20;;;6.00;;
64487;SDS011;50864;45.050;39.014;2023-04-10T07:53:27;7.70;;;4.60;;
64487;SDS011;50864;45.050;39.014;2023-04-10T07:55:52;9.57;;;5.35;;
64487;SDS011;50864;45.050;39.014;2023-04-10T07:58:18;10.75;;;6.25;;
64487;SDS011;50864;45.050;39.014;2023-04-10T08:00:44;11.85;;;6.00;;
64487;SDS011;50864;45.050;39.014;2023-04-10T08:03:10;11.20;;;6.18;;
64487;SDS011;50864;45.050;39.014;2023-04-10T08:05:37;10.20;;;6.00;;
64487;SDS011;50864;45.050;39.014;2023-04-10T08:08:03;10.75;;;5.55;;
64487;SDS011;50864;45.050;39.014;2023-04-10T08:10:29;10.55;;;4.97;;
64487;SDS011;50864;45.050;39.014;2023-04-10T08:12:54;11.52;;;5.20;;
64487;SDS011;50864;45.050;39.014;2023-04-10T08:15:20;10.07;;;4.72;;
64487;SDS011;50864;45.050;39.014;2023-04-10T08:17:46;10.55;;;5.28;;
64487;SDS011;50864;45.050;39.014;2023-04-10T08:20:12;8.45;;;5.18;;
64487;SDS011;50864;45.050;39.014;2023-04-10T08:22:37;9.27;;;4.03;;
64487;SDS011;50864;45.050;39.014;2023-04-10T08:25:04;10.23;;;4.87;;
64487;SDS011;50864;45.050;39.014;2023-04-10T08:27:29;11.55;;;5.40;;
64487;SDS011;50864;45.050;39.014;2023-04-10T08:29:55;8.32;;;4.78;;
64487;SDS011;50864;45.050;39.014;2023-04-10T08:32:21;9.98;;;5.22;;
64487;SDS011;50864;45.050;39.014;2023-04-10T08:34:48;10.43;;;5.28;;
64487;SDS011;50864;45.050;39.014;2023-04-10T08:37:14;8.35;;;4.90;;
64487;SDS011;50864;45.050;39.014;2023-04-10T08:39:40;13.40;;;5.78;;
64487;SDS011;50864;45.050;39.014;2023-04-10T08:42:06;12.90;;;7.05;;
64487;SDS011;50864;45.050;39.014;2023-04-10T08:44:32;11.45;;;6.45;;
64487;SDS011;50864;45.050;39.014;2023-04-10T08:46:58;12.45;;;6.28;;
64487;SDS011;50864;45.050;39.014;2023-04-10T08:49:31;14.90;;;8.48;;
64487;SDS011;50864;45.050;39.014;2023-04-10T08:52:07;12.23;;;7.07;;
64487;SDS011;50864;45.050;39.014;2023-04-10T08:54:34;11.65;;;6.97;;
64487;SDS011;50864;45.050;39.014;2023-04-10T08:57:02;11.88;;;6.03;;
64487;SDS011;50864;45.050;39.014;2023-04-10T08:59:29;10.75;;;6.78;;
64487;SDS011;50864;45.050;39.014;2023-04-10T09:01:55;13.80;;;7.30;;
64487;SDS011;50864;45.050;39.014;2023-04-10T09:04:22;12.68;;;6.53;;
64487;SDS011;50864;45.050;39.014;2023-04-10T09:06:49;15.95;;;7.03;;
64487;SDS011;50864;45.050;39.014;2023-04-10T09:09:14;14.93;;;7.53;;
64487;SDS011;50864;45.050;39.014;2023-04-10T09:14:22;12.65;;;6.62;;
64487;SDS011;50864;45.050;39.014;2023-04-10T09:16:49;11.12;;;6.30;;
64487;SDS011;50864;45.050;39.014;2023-04-10T09:19:28;12.95;;;7.90;;
64487;SDS011;50864;45.050;39.014;2023-04-10T09:21:54;9.73;;;6.68;;
64487;SDS011;50864;45.050;39.014;2023-04-10T09:24:19;13.62;;;7.22;;
64487;SDS011;50864;45.050;39.014;2023-04-10T09:26:45;11.85;;;7.35;;
64487;SDS011;50864;45.050;39.014;2023-04-10T09:29:11;13.07;;;7.15;;
64487;SDS011;50864;45.050;39.014;2023-04-10T09:31:37;11.35;;;6.80;;
64487;SDS011;50864;45.050;39.014;2023-04-10T09:36:32;13.38;;;7.65;;
64487;SDS011;50864;45.050;39.014;2023-04-10T09:38:58;13.55;;;7.30;;
64487;SDS011;50864;45.050;39.014;2023-04-10T09:41:23;13.13;;;6.80;;
64487;SDS011;50864;45.050;39.014;2023-04-10T09:43:50;14.32;;;7.53;;
64487;SDS011;50864;45.050;39.014;2023-04-10T09:46:29;14.75;;;6.95;;
64487;SDS011;50864;45.050;39.014;2023-04-10T09:48:55;10.82;;;7.07;;
64487;SDS011;50864;45.050;39.014;2023-04-10T09:51:27;12.82;;;7.32;;
64487;SDS011;50864;45.050;39.014;2023-04-10T09:53:55;13.62;;;7.28;;
64487;SDS011;50864;45.050;39.014;2023-04-10T09:56:21;12.98;;;8.18;;
64487;SDS011;50864;45.050;39.014;2023-04-10T09:58:47;13.40;;;7.72;;
64487;SDS011;50864;45.050;39.014;2023-04-10T10:01:13;15.70;;;7.53;;
64487;SDS011;50864;45.050;39.014;2023-04-10T10:03:40;14.05;;;6.70;;
64487;SDS011;50864;45.050;39.014;2023-04-10T10:06:06;10.45;;;6.05;;
64487;SDS011;50864;45.050;39.014;2023-04-10T10:08:32;11.00;;;6.85;;
64487;SDS011;50864;45.050;39.014;2023-04-10T10:10:58;10.73;;;6.75;;
64487;SDS011;50864;45.050;39.014;2023-04-10T10:13:40;11.55;;;6.80;;
64487;SDS011;50864;45.050;39.014;2023-04-10T10:16:12;11.70;;;7.15;;
64487;SDS011;50864;45.050;39.014;2023-04-10T10:18:43;14.73;;;7.40;;
64487;SDS011;50864;45.050;39.014;2023-04-10T10:21:11;13.43;;;6.47;;
64487;SDS011;50864;45.050;39.014;2023-04-10T10:23:37;10.30;;;5.20;;
64487;SDS011;50864;45.050;39.014;2023-04-10T10:26:05;12.27;;;6.10;;
64487;SDS011;50864;45.050;39.014;2023-04-10T10:28:34;9.20;;;5.87;;
64487;SDS011;50864;45.050;39.014;2023-04-10T10:31:01;11.93;;;6.68;;
64487;SDS011;50864;45.050;39.014;2023-04-10T10:33:27;11.50;;;5.75;;
64487;SDS011;50864;45.050;39.014;2023-04-10T10:35:57;14.82;;;6.10;;
64487;SDS011;50864;45.050;39.014;2023-04-10T10:38:22;11.68;;;6.55;;
64487;SDS011;50864;45.050;39.014;2023-04-10T10:40:50;9.63;;;5.72;;
64487;SDS011;50864;45.050;39.014;2023-04-10T10:43:23;11.27;;;5.78;;
64487;SDS011;50864;45.050;39.014;2023-04-10T10:46:03;9.38;;;5.55;;
64487;SDS011;50864;45.050;39.014;2023-04-10T10:48:31;9.82;;;5.03;;
64487;SDS011;50864;45.050;39.014;2023-04-10T10:50:58;14.05;;;5.43;;
64487;SDS011;50864;45.050;39.014;2023-04-10T10:55:56;10.55;;;5.93;;
64487;SDS011;50864;45.050;39.014;2023-04-10T11:01:07;10.18;;;5.80;;
64487;SDS011;50864;45.050;39.014;2023-04-10T11:03:33;7.60;;;3.75;;
64487;SDS011;50864;45.050;39.014;2023-04-10T11:05:59;9.07;;;5.20;;
64487;SDS011;50864;45.050;39.014;2023-04-10T11:13:41;8.02;;;4.40;;
64487;SDS011;50864;45.050;39.014;2023-04-10T11:16:07;10.68;;;4.37;;
64487;SDS011;50864;45.050;39.014;2023-04-10T11:21:15;7.05;;;3.70;;
64487;SDS011;50864;45.050;39.014;2023-04-10T11:24:24;8.38;;;3.20;;
64487;SDS011;50864;45.050;39.014;2023-04-10T11:31:42;6.43;;;2.90;;
64487;SDS011;50864;45.050;39.014;2023-04-10T11:34:08;7.30;;;3.00;;
64487;SDS011;50864;45.050;39.014;2023-04-10T11:36:38;8.98;;;2.78;;
64487;SDS011;50864;45.050;39.014;2023-04-10T11:39:05;7.70;;;2.67;;
64487;SDS011;50864;45.050;39.014;2023-04-10T11:41:34;7.93;;;2.90;;
64487;SDS011;50864;45.050;39.014;2023-04-10T11:44:00;8.20;;;2.80;;
64487;SDS011;50864;45.050;39.014;2023-04-10T11:46:26;4.70;;;2.90;;
64487;SDS011;50864;45.050;39.014;2023-04-10T11:48:54;7.15;;;3.30;;
64487;SDS011;50864;45.050;39.014;2023-04-10T11:51:20;6.68;;;2.83;;
64487;SDS011;50864;45.050;39.014;2023-04-10T11:53:46;6.07;;;2.92;;
64487;SDS011;50864;45.050;39.014;2023-04-10T11:56:18;7.62;;;2.80;;
64487;SDS011;50864;45.050;39.014;2023-04-10T11:58:49;6.30;;;2.70;;
64487;SDS011;50864;45.050;39.014;2023-04-10T12:01:18;8.45;;;2.70;;
64487;SDS011;50864;45.050;39.014;2023-04-10T12:03:45;9.10;;;2.92;;
64487;SDS011;50864;45.050;39.014;2023-04-10T12:06:12;7.10;;;2.87;;
64487;SDS011;50864;45.050;39.014;2023-04-10T12:08:38;9.38;;;2.80;;
64487;SDS011;50864;45.050;39.014;2023-04-10T12:11:05;6.45;;;2.50;;
64487;SDS011;50864;45.050;39.014;2023-04-10T12:13:31;5.75;;;2.97;;
64487;SDS011;50864;45.050;39.014;2023-04-10T12:15:58;8.57;;;2.80;;
64487;SDS011;50864;45.050;39.014;2023-04-10T12:18:26;6.60;;;2.78;;
64487;SDS011;50864;45.050;39.014;2023-04-10T12:20:52;7.00;;;3.22;;
64487;SDS011;50864;45.050;39.014;2023-04-10T12:23:24;8.80;;;2.80;;
64487;SDS011;50864;45.050;39.014;2023-04-10T12:25:50;8.55;;;3.40;;
64487;SDS011;50864;45.050;39.014;2023-04-10T12:28:17;8.35;;;2.83;;
64487;SDS011;50864;45.050;39.014;2023-04-10T12:30:47;9.60;;;2.90;;
64487;SDS011;50864;45.050;39.014;2023-04-10T12:33:13;5.07;;;2.80;;
64487;SDS011;50864;45.050;39.014;2023-04-10T12:35:39;5.62;;;2.65;;
64487;SDS011;50864;45.050;39.014;2023-04-10T12:38:06;9.95;;;3.25;;
64487;SDS011;50864;45.050;39.014;2023-04-10T12:40:32;4.68;;;2.58;;
64487;SDS011;50864;45.050;39.014;2023-04-10T12:42:58;9.27;;;4.05;;
64487;SDS011;50864;45.050;39.014;2023-04-10T12:45:43;7.20;;;2.90;;
64487;SDS011;50864;45.050;39.014;2023-04-10T12:48:09;6.47;;;2.60;;
64487;SDS011;50864;45.050;39.014;2023-04-10T12:50:44;7.97;;;2.90;;
64487;SDS011;50864;45.050;39.014;2023-04-10T12:53:11;4.82;;;2.70;;
64487;SDS011;50864;45.050;39.014;2023-04-10T12:55:38;6.32;;;2.70;;
64487;SDS011;50864;45.050;39.014;2023-04-10T12:58:16;7.10;;;2.80;;
64487;SDS011;50864;45.050;39.014;2023-04-10T13:04:03;14.68;;;3.00;;
64487;SDS011;50864;45.050;39.014;2023-04-10T13:06:29;7.20;;;3.10;;
64487;SDS011;50864;45.050;39.014;2023-04-10T13:08:54;4.90;;;2.72;;
64487;SDS011;50864;45.050;39.014;2023-04-10T13:11:20;5.07;;;3.10;;
64487;SDS011;50864;45.050;39.014;2023-04-10T13:13:48;6.65;;;2.67;;
64487;SDS011;50864;45.050;39.014;2023-04-10T13:16:15;6.62;;;2.70;;
64487;SDS011;50864;45.050;39.014;2023-04-10T13:18:40;8.98;;;2.90;;
64487;SDS011;50864;45.050;39.014;2023-04-10T13:21:06;8.88;;;3.00;;
64487;SDS011;50864;45.050;39.014;2023-04-10T13:23:32;7.20;;;2.92;;
64487;SDS011;50864;45.050;39.014;2023-04-10T13:25:58;9.68;;;3.12;;
64487;SDS011;50864;45.050;39.014;2023-04-10T13:28:24;7.45;;;3.00;;
64487;SDS011;50864;45.050;39.014;2023-04-10T13:30:50;8.10;;;3.60;;
64487;SDS011;50864;45.050;39.014;2023-04-10T13:33:16;6.57;;;2.80;;
64487;SDS011;50864;45.050;39.014;2023-04-10T13:35:43;8.40;;;3.30;;
64487;SDS011;50864;45.050;39.014;2023-04-10T13:38:09;7.45;;;3.05;;
64487;SDS011;50864;45.050;39.014;2023-04-10T13:40:36;8.75;;;2.92;;
64487;SDS011;50864;45.050;39.014;2023-04-10T13:43:10;8.00;;;3.25;;
64487;SDS011;50864;45.050;39.014;2023-04-10T13:45:44;9.35;;;3.28;;
64487;SDS011;50864;45.050;39.014;2023-04-10T13:48:20;8.10;;;3.55;;
64487;SDS011;50864;45.050;39.014;2023-04-10T13:50:45;11.05;;;3.42;;
64487;SDS011;50864;45.050;39.014;2023-04-10T13:53:11;6.60;;;3.60;;
64487;SDS011;50864;45.050;39.014;2023-04-10T13:55:37;7.85;;;3.40;;
64487;SDS011;50864;45.050;39.014;2023-04-10T13:58:09;9.27;;;3.40;;
64487;SDS011;50864;45.050;39.014;2023-04-10T14:00:44;8.98;;;3.65;;
64487;SDS011;50864;45.050;39.014;2023-04-10T14:03:11;11.15;;;4.35;;
64487;SDS011;50864;45.050;39.014;2023-04-10T14:05:38;10.38;;;5.00;;
64487;SDS011;50864;45.050;39.014;2023-04-10T14:08:04;8.88;;;4.00;;
64487;SDS011;50864;45.050;39.014;2023-04-10T14:10:31;11.73;;;4.53;;
64487;SDS011;50864;45.050;39.014;2023-04-10T14:12:57;9.00;;;4.85;;
64487;SDS011;50864;45.050;39.014;2023-04-10T14:15:23;8.98;;;4.30;;
64487;SDS011;50864;45.050;39.014;2023-04-10T14:17:49;10.25;;;4.65;;
64487;SDS011;50864;45.050;39.014;2023-04-10T14:20:15;8.48;;;3.87;;
64487;SDS011;50864;45.050;39.014;2023-04-10T14:22:41;9.18;;;4.28;;
64487;SDS011;50864;45.050;39.014;2023-04-10T14:25:09;15.00;;;5.32;;
64487;SDS011;50864;45.050;39.014;2023-04-10T14:27:41;11.93;;;4.75;;
64487;SDS011;50864;45.050;39.014;2023-04-10T14:30:07;9.75;;;4.50;;
64487;SDS011;50864;45.050;39.014;2023-04-10T14:32:33;13.20;;;5.05;;
64487;SDS011;50864;45.050;39.014;2023-04-10T14:34:59;9.38;;;4.80;;
64487;SDS011;50864;45.050;39.014;2023-04-10T14:37:25;9.00;;;4.20;;
64487;SDS011;50864;45.050;39.014;2023-04-10T14:39:51;8.73;;;4.80;;
64487;SDS011;50864;45.050;39.014;2023-04-10T14:42:17;8.00;;;3.92;;
64487;SDS011;50864;45.050;39.014;2023-04-10T14:44:43;11.45;;;4.07;;
64487;SDS011;50864;45.050;39.014;2023-04-10T14:47:09;7.72;;;2.97;;
64487;SDS011;50864;45.050;39.014;2023-04-10T14:49:35;10.85;;;4.35;;
64487;SDS011;50864;45.050;39.014;2023-04-10T14:52:01;8.75;;;3.80;;
64487;SDS011;50864;45.050;39.014;2023-04-10T14:54:27;9.98;;;4.22;;
64487;SDS011;50864;45.050;39.014;2023-04-10T14:56:53;10.05;;;2.90;;
64487;SDS011;50864;45.050;39.014;2023-04-10T14:59:18;8.23;;;3.37;;
64487;SDS011;50864;45.050;39.014;2023-04-10T15:01:44;6.90;;;3.25;;
64487;SDS011;50864;45.050;39.014;2023-04-10T15:04:10;6.37;;;3.10;;